sensor_id;sensor_type;location;lat;lon;timestamp;temperature;humidity
17148;DHT22;8689;47.364;8.796;2023-06-10T00:00:44;18.00;72.30
17148;DHT22;8689;47.364;8.796;2023-06-10T00:03:27;18.00;71.70
17148;DHT22;8689;47.364;8.796;2023-06-10T00:05:57;18.00;72.30
17148;DHT22;8689;47.364;8.796;2023-06-10T00:08:35;17.90;72.20
17148;DHT22;8689;47.364;8.796;2023-06-10T00:11:20;17.90;72.20
17148;DHT22;8689;47.364;8.796;2023-06-10T00:14:07;17.90;72.20
17148;DHT22;8689;47.364;8.796;2023-06-10T00:16:47;17.90;72.20
17148;DHT22;8689;47.364;8.796;2023-06-10T00:19:30;17.90;72.10
17148;DHT22;8689;47.364;8.796;2023-06-10T00:25:30;17.90;71.70
17148;DHT22;8689;47.364;8.796;2023-06-10T00:28:07;17.90;72.10
17148;DHT22;8689;47.364;8.796;2023-06-10T00:31:05;17.90;72.20
17148;DHT22;8689;47.364;8.796;2023-06-10T00:34:04;17.80;72.10
17148;DHT22;8689;47.364;8.796;2023-06-10T00:36:32;17.80;72.80
17148;DHT22;8689;47.364;8.796;2023-06-10T00:39:15;17.70;72.90
17148;DHT22;8689;47.364;8.796;2023-06-10T00:45:17;17.60;73.20
17148;DHT22;8689;47.364;8.796;2023-06-10T00:48:14;17.60;73.40
17148;DHT22;8689;47.364;8.796;2023-06-10T00:51:04;17.50;73.50
17148;DHT22;8689;47.364;8.796;2023-06-10T00:53:35;17.50;73.80
17148;DHT22;8689;47.364;8.796;2023-06-10T00:59:28;17.30;74.50
17148;DHT22;8689;47.364;8.796;2023-06-10T01:02:16;17.10;74.90
17148;DHT22;8689;47.364;8.796;2023-06-10T01:05:44;17.00;75.70
17148;DHT22;8689;47.364;8.796;2023-06-10T01:08:23;16.80;76.70
17148;DHT22;8689;47.364;8.796;2023-06-10T01:11:00;16.70;77.40
17148;DHT22;8689;47.364;8.796;2023-06-10T01:13:31;16.60;78.20
17148;DHT22;8689;47.364;8.796;2023-06-10T01:16:04;16.60;77.20
17148;DHT22;8689;47.364;8.796;2023-06-10T01:18:48;16.70;77.10
17148;DHT22;8689;47.364;8.796;2023-06-10T01:21:38;16.70;77.00
17148;DHT22;8689;47.364;8.796;2023-06-10T01:34:37;16.50;77.70
17148;DHT22;8689;47.364;8.796;2023-06-10T01:37:39;16.30;78.90
17148;DHT22;8689;47.364;8.796;2023-06-10T01:40:31;16.10;79.70
17148;DHT22;8689;47.364;8.796;2023-06-10T01:43:25;16.00;80.80
17148;DHT22;8689;47.364;8.796;2023-06-10T01:46:08;15.80;81.70
17148;DHT22;8689;47.364;8.796;2023-06-10T01:48:46;15.70;81.80
17148;DHT22;8689;47.364;8.796;2023-06-10T01:51:29;15.50;82.90
17148;DHT22;8689;47.364;8.796;2023-06-10T01:57:44;15.20;84.20
17148;DHT22;8689;47.364;8.796;2023-06-10T02:00:21;15.00;86.00
17148;DHT22;8689;47.364;8.796;2023-06-10T02:03:14;15.00;86.10
17148;DHT22;8689;47.364;8.796;2023-06-10T02:05:52;14.90;86.70
17148;DHT22;8689;47.364;8.796;2023-06-10T02:09:07;14.90;87.10
17148;DHT22;8689;47.364;8.796;2023-06-10T02:11:44;14.80;87.60
17148;DHT22;8689;47.364;8.796;2023-06-10T02:14:33;14.80;87.80
17148;DHT22;8689;47.364;8.796;2023-06-10T02:17:15;14.90;88.50
17148;DHT22;8689;47.364;8.796;2023-06-10T02:19:53;14.90;88.30
17148;DHT22;8689;47.364;8.796;2023-06-10T02:25:52;15.00;87.40
17148;DHT22;8689;47.364;8.796;2023-06-10T02:28:45;15.00;87.70
17148;DHT22;8689;47.364;8.796;2023-06-10T02:31:19;15.00;88.00
17148;DHT22;8689;47.364;8.796;2023-06-10T02:33:49;15.00;88.30
17148;DHT22;8689;47.364;8.796;2023-06-10T02:36:29;15.00;88.90
17148;DHT22;8689;47.364;8.796;2023-06-10T02:38:57;14.90;90.10
17148;DHT22;8689;47.364;8.796;2023-06-10T02:41:27;14.90;90.30
17148;DHT22;8689;47.364;8.796;2023-06-10T02:43:59;14.80;90.80
17148;DHT22;8689;47.364;8.796;2023-06-10T02:46:49;14.70;91.00
17148;DHT22;8689;47.364;8.796;2023-06-10T02:49:40;14.70;91.20
17148;DHT22;8689;47.364;8.796;2023-06-10T02:52:15;14.70;91.80
17148;DHT22;8689;47.364;8.796;2023-06-10T02:54:59;14.70;92.00
17148;DHT22;8689;47.364;8.796;2023-06-10T02:58:02;14.70;92.60
17148;DHT22;8689;47.364;8.796;2023-06-10T03:00:45;14.70;93.00
17148;DHT22;8689;47.364;8.796;2023-06-10T03:03:16;14.60;93.00
17148;DHT22;8689;47.364;8.796;2023-06-10T03:05:44;14.60;93.90
17148;DHT22;8689;47.364;8.796;2023-06-10T03:08:11;14.50;94.70
17148;DHT22;8689;47.364;8.796;2023-06-10T03:10:38;14.40;95.10
17148;DHT22;8689;47.364;8.796;2023-06-10T03:13:05;14.40;95.50
17148;DHT22;8689;47.364;8.796;2023-06-10T03:15:44;14.40;95.90
17148;DHT22;8689;47.364;8.796;2023-06-10T03:18:18;14.40;96.20
17148;DHT22;8689;47.364;8.796;2023-06-10T03:20:52;14.40;96.70
17148;DHT22;8689;47.364;8.796;2023-06-10T03:23:22;14.40;97.50
17148;DHT22;8689;47.364;8.796;2023-06-10T03:25:50;14.30;97.90
17148;DHT22;8689;47.364;8.796;2023-06-10T03:28:17;14.30;98.90
17148;DHT22;8689;47.364;8.796;2023-06-10T03:30:53;14.20;99.60
17148;DHT22;8689;47.364;8.796;2023-06-10T03:33:31;14.20;99.90
17148;DHT22;8689;47.364;8.796;2023-06-10T03:36:22;14.20;99.90
17148;DHT22;8689;47.364;8.796;2023-06-10T03:38:54;14.10;99.90
17148;DHT22;8689;47.364;8.796;2023-06-10T03:41:22;14.10;99.90
17148;DHT22;8689;47.364;8.796;2023-06-10T03:43:53;14.00;99.90
17148;DHT22;8689;47.364;8.796;2023-06-10T03:46:20;14.00;99.90
17148;DHT22;8689;47.364;8.796;2023-06-10T03:48:56;14.00;99.90
17148;DHT22;8689;47.364;8.796;2023-06-10T03:51:31;13.90;99.90
17148;DHT22;8689;47.364;8.796;2023-06-10T03:54:15;13.80;99.90
17148;DHT22;8689;47.364;8.796;2023-06-10T03:56:42;13.70;99.90
17148;DHT22;8689;47.364;8.796;2023-06-10T03:59:13;13.70;99.90
17148;DHT22;8689;47.364;8.796;2023-06-10T04:01:40;13.70;99.90
17148;DHT22;8689;47.364;8.796;2023-06-10T04:04:13;13.70;99.90
17148;DHT22;8689;47.364;8.796;2023-06-10T04:06:40;13.70;99.90
17148;DHT22;8689;47.364;8.796;2023-06-10T04:12:31;13.70;99.90
17148;DHT22;8689;47.364;8.796;2023-06-10T04:15:06;13.80;99.90
17148;DHT22;8689;47.364;8.796;2023-06-10T04:17:43;13.70;99.90
17148;DHT22;8689;47.364;8.796;2023-06-10T04:20:16;13.70;99.90
17148;DHT22;8689;47.364;8.796;2023-06-10T04:22:44;13.60;99.90
17148;DHT22;8689;47.364;8.796;2023-06-10T04:25:18;13.70;99.90
17148;DHT22;8689;47.364;8.796;2023-06-10T04:27:51;13.80;99.90
17148;DHT22;8689;47.364;8.796;2023-06-10T04:30:18;13.90;99.90
17148;DHT22;8689;47.364;8.796;2023-06-10T04:32:47;13.90;99.90
17148;DHT22;8689;47.364;8.796;2023-06-10T04:35:20;13.90;99.90
17148;DHT22;8689;47.364;8.796;2023-06-10T04:39:25;14.00;99.90
17148;DHT22;8689;47.364;8.796;2023-06-10T04:44:48;14.00;99.90
17148;DHT22;8689;47.364;8.796;2023-06-10T05:04:36;14.20;99.90
17148;DHT22;8689;47.364;8.796;2023-06-10T05:14:16;14.30;99.90
17148;DHT22;8689;47.364;8.796;2023-06-10T05:19:52;14.40;99.90
17148;DHT22;8689;47.364;8.796;2023-06-10T05:25:37;14.60;99.90
17148;DHT22;8689;47.364;8.796;2023-06-10T05:28:05;14.80;99.90
17148;DHT22;8689;47.364;8.796;2023-06-10T06:30:01;21.70;67.30
17148;DHT22;8689;47.364;8.796;2023-06-10T06:32:28;22.00;65.90
17148;DHT22;8689;47.364;8.796;2023-06-10T06:34:55;22.10;65.30
17148;DHT22;8689;47.364;8.796;2023-06-10T06:37:29;22.10;64.90
17148;DHT22;8689;47.364;8.796;2023-06-10T06:39:57;22.10;65.00
17148;DHT22;8689;47.364;8.796;2023-06-10T06:42:24;22.10;64.80
17148;DHT22;8689;47.364;8.796;2023-06-10T06:44:51;22.10;64.30
17148;DHT22;8689;47.364;8.796;2023-06-10T06:47:22;21.90;64.60
17148;DHT22;8689;47.364;8.796;2023-06-10T06:49:50;21.90;67.70
17148;DHT22;8689;47.364;8.796;2023-06-10T06:52:19;22.00;66.40
17148;DHT22;8689;47.364;8.796;2023-06-10T06:54:47;22.10;67.00
17148;DHT22;8689;47.364;8.796;2023-06-10T06:57:15;22.30;63.80
17148;DHT22;8689;47.364;8.796;2023-06-10T06:59:43;22.50;65.30
17148;DHT22;8689;47.364;8.796;2023-06-10T07:02:10;22.60;63.90
17148;DHT22;8689;47.364;8.796;2023-06-10T08:30:11;25.90;55.00
17148;DHT22;8689;47.364;8.796;2023-06-10T08:43:26;26.10;54.10
17148;DHT22;8689;47.364;8.796;2023-06-10T08:49:34;25.90;55.80
17148;DHT22;8689;47.364;8.796;2023-06-10T08:52:43;26.00;54.60
17148;DHT22;8689;47.364;8.796;2023-06-10T08:55:42;26.10;54.90
17148;DHT22;8689;47.364;8.796;2023-06-10T08:58:10;26.40;54.30
17148;DHT22;8689;47.364;8.796;2023-06-10T09:07:10;26.80;52.70
17148;DHT22;8689;47.364;8.796;2023-06-10T09:11:17;26.90;53.10
17148;DHT22;8689;47.364;8.796;2023-06-10T09:34:20;27.20;54.10
17148;DHT22;8689;47.364;8.796;2023-06-10T09:44:11;28.10;52.90
17148;DHT22;8689;47.364;8.796;2023-06-10T09:46:38;28.20;51.30
17148;DHT22;8689;47.364;8.796;2023-06-10T09:49:16;28.20;51.30
17148;DHT22;8689;47.364;8.796;2023-06-10T09:51:49;28.10;51.20
17148;DHT22;8689;47.364;8.796;2023-06-10T09:54:18;27.90;51.40
17148;DHT22;8689;47.364;8.796;2023-06-10T09:56:47;27.70;51.80
17148;DHT22;8689;47.364;8.796;2023-06-10T09:59:14;27.60;51.10
17148;DHT22;8689;47.364;8.796;2023-06-10T10:01:42;27.40;52.00
17148;DHT22;8689;47.364;8.796;2023-06-10T10:10:21;27.50;52.90
17148;DHT22;8689;47.364;8.796;2023-06-10T10:13:00;27.40;53.00
17148;DHT22;8689;47.364;8.796;2023-06-10T10:16:35;27.70;53.60
17148;DHT22;8689;47.364;8.796;2023-06-10T10:19:07;27.90;52.10
17148;DHT22;8689;47.364;8.796;2023-06-10T10:22:04;28.20;52.00
17148;DHT22;8689;47.364;8.796;2023-06-10T10:25:01;28.30;50.90
17148;DHT22;8689;47.364;8.796;2023-06-10T10:27:51;28.20;51.30
17148;DHT22;8689;47.364;8.796;2023-06-10T10:30:26;28.00;51.30
17148;DHT22;8689;47.364;8.796;2023-06-10T10:33:23;28.10;52.50
17148;DHT22;8689;47.364;8.796;2023-06-10T10:36:10;28.30;52.40
17148;DHT22;8689;47.364;8.796;2023-06-10T10:39:05;28.10;52.80
17148;DHT22;8689;47.364;8.796;2023-06-10T10:45:24;26.70;53.30
17148;DHT22;8689;47.364;8.796;2023-06-10T10:47:56;26.10;56.60
17148;DHT22;8689;47.364;8.796;2023-06-10T10:50:44;26.50;55.40
17148;DHT22;8689;47.364;8.796;2023-06-10T11:03:49;28.30;52.60
17148;DHT22;8689;47.364;8.796;2023-06-10T11:06:19;28.80;50.60
17148;DHT22;8689;47.364;8.796;2023-06-10T11:12:23;29.30;51.10
17148;DHT22;8689;47.364;8.796;2023-06-10T11:15:56;29.20;49.60
17148;DHT22;8689;47.364;8.796;2023-06-10T11:25:58;28.50;52.00
17148;DHT22;8689;47.364;8.796;2023-06-10T11:29:17;28.80;53.00
17148;DHT22;8689;47.364;8.796;2023-06-10T11:31:49;29.10;50.40
17148;DHT22;8689;47.364;8.796;2023-06-10T11:34:23;29.50;49.60
17148;DHT22;8689;47.364;8.796;2023-06-10T11:36:55;30.30;50.60
17148;DHT22;8689;47.364;8.796;2023-06-10T11:39:29;30.80;49.00
17148;DHT22;8689;47.364;8.796;2023-06-10T11:41:57;30.30;47.50
17148;DHT22;8689;47.364;8.796;2023-06-10T11:44:27;30.50;47.30
17148;DHT22;8689;47.364;8.796;2023-06-10T11:47:05;30.30;46.50
17148;DHT22;8689;47.364;8.796;2023-06-10T11:49:33;30.30;47.60
17148;DHT22;8689;47.364;8.796;2023-06-10T11:52:22;30.50;47.70
17148;DHT22;8689;47.364;8.796;2023-06-10T12:01:06;30.50;46.20
17148;DHT22;8689;47.364;8.796;2023-06-10T12:03:50;30.50;47.30
17148;DHT22;8689;47.364;8.796;2023-06-10T12:06:55;30.90;45.90
17148;DHT22;8689;47.364;8.796;2023-06-10T12:09:26;30.50;47.30
17148;DHT22;8689;47.364;8.796;2023-06-10T12:12:37;30.70;47.30
17148;DHT22;8689;47.364;8.796;2023-06-10T12:15:24;31.00;48.30
17148;DHT22;8689;47.364;8.796;2023-06-10T12:44:44;31.40;43.10
17148;DHT22;8689;47.364;8.796;2023-06-10T12:47:50;31.50;43.30
17148;DHT22;8689;47.364;8.796;2023-06-10T12:50:35;31.70;42.80
17148;DHT22;8689;47.364;8.796;2023-06-10T12:56:45;32.00;42.10
17148;DHT22;8689;47.364;8.796;2023-06-10T12:59:45;32.10;40.90
17148;DHT22;8689;47.364;8.796;2023-06-10T13:03:05;32.50;40.10
17148;DHT22;8689;47.364;8.796;2023-06-10T13:06:01;31.90;39.80
17148;DHT22;8689;47.364;8.796;2023-06-10T13:49:38;31.60;42.40
17148;DHT22;8689;47.364;8.796;2023-06-10T13:52:31;31.80;40.30
17148;DHT22;8689;47.364;8.796;2023-06-10T14:01:23;30.90;42.60
17148;DHT22;8689;47.364;8.796;2023-06-10T14:03:50;31.10;41.50
17148;DHT22;8689;47.364;8.796;2023-06-10T14:06:19;31.40;41.20
17148;DHT22;8689;47.364;8.796;2023-06-10T14:08:46;31.90;41.00
17148;DHT22;8689;47.364;8.796;2023-06-10T14:11:14;32.50;41.00
17148;DHT22;8689;47.364;8.796;2023-06-10T14:13:52;32.80;39.20
17148;DHT22;8689;47.364;8.796;2023-06-10T14:16:24;33.00;40.40
17148;DHT22;8689;47.364;8.796;2023-06-10T14:18:55;32.70;39.20
17148;DHT22;8689;47.364;8.796;2023-06-10T14:21:40;32.70;39.20
17148;DHT22;8689;47.364;8.796;2023-06-10T14:24:07;33.00;39.20
17148;DHT22;8689;47.364;8.796;2023-06-10T14:26:35;33.30;39.20
17148;DHT22;8689;47.364;8.796;2023-06-10T14:29:02;33.00;38.10
17148;DHT22;8689;47.364;8.796;2023-06-10T14:31:29;32.60;36.80
17148;DHT22;8689;47.364;8.796;2023-06-10T14:34:10;32.30;39.80
17148;DHT22;8689;47.364;8.796;2023-06-10T14:36:47;32.80;38.50
17148;DHT22;8689;47.364;8.796;2023-06-10T14:39:15;33.30;35.50
17148;DHT22;8689;47.364;8.796;2023-06-10T14:41:42;33.70;35.20
17148;DHT22;8689;47.364;8.796;2023-06-10T14:44:10;33.80;35.30
17148;DHT22;8689;47.364;8.796;2023-06-10T14:46:59;33.40;35.60
17148;DHT22;8689;47.364;8.796;2023-06-10T14:50:19;33.20;36.10
17148;DHT22;8689;47.364;8.796;2023-06-10T14:53:18;33.10;36.20
17148;DHT22;8689;47.364;8.796;2023-06-10T14:55:47;33.00;36.60
17148;DHT22;8689;47.364;8.796;2023-06-10T14:58:24;32.90;38.30
17148;DHT22;8689;47.364;8.796;2023-06-10T15:00:52;33.20;37.00
17148;DHT22;8689;47.364;8.796;2023-06-10T15:03:30;33.10;35.60
17148;DHT22;8689;47.364;8.796;2023-06-10T15:06:07;32.90;37.10
17148;DHT22;8689;47.364;8.796;2023-06-10T15:08:36;32.30;38.50
17148;DHT22;8689;47.364;8.796;2023-06-10T15:11:03;32.10;38.40
17148;DHT22;8689;47.364;8.796;2023-06-10T15:13:31;32.10;37.70
17148;DHT22;8689;47.364;8.796;2023-06-10T15:15:58;31.50;38.40
17148;DHT22;8689;47.364;8.796;2023-06-10T15:18:26;31.70;40.80
17148;DHT22;8689;47.364;8.796;2023-06-10T15:20:53;32.30;39.30
17148;DHT22;8689;47.364;8.796;2023-06-10T15:23:21;33.10;38.00
17148;DHT22;8689;47.364;8.796;2023-06-10T15:25:50;33.60;36.30
17148;DHT22;8689;47.364;8.796;2023-06-10T15:28:17;33.70;36.60
17148;DHT22;8689;47.364;8.796;2023-06-10T15:30:45;33.90;36.70
17148;DHT22;8689;47.364;8.796;2023-06-10T15:33:13;34.00;35.70
17148;DHT22;8689;47.364;8.796;2023-06-10T15:35:42;34.00;36.50
17148;DHT22;8689;47.364;8.796;2023-06-10T15:38:19;34.20;36.90
17148;DHT22;8689;47.364;8.796;2023-06-10T15:40:49;34.00;37.60
17148;DHT22;8689;47.364;8.796;2023-06-10T15:43:16;33.60;38.30
17148;DHT22;8689;47.364;8.796;2023-06-10T15:47:09;33.30;39.00
17148;DHT22;8689;47.364;8.796;2023-06-10T15:52:08;33.40;39.60
17148;DHT22;8689;47.364;8.796;2023-06-10T15:55:13;33.70;39.20
17148;DHT22;8689;47.364;8.796;2023-06-10T15:58:06;34.00;38.50
17148;DHT22;8689;47.364;8.796;2023-06-10T16:00:37;33.80;37.40
17148;DHT22;8689;47.364;8.796;2023-06-10T16:03:10;32.50;38.70
17148;DHT22;8689;47.364;8.796;2023-06-10T16:09:05;31.50;40.10
17148;DHT22;8689;47.364;8.796;2023-06-10T16:11:32;32.00;38.80
17148;DHT22;8689;47.364;8.796;2023-06-10T16:18:35;32.10;38.60
17148;DHT22;8689;47.364;8.796;2023-06-10T16:20:44;31.30;39.40
17148;DHT22;8689;47.364;8.796;2023-06-10T16:23:43;30.70;41.40
17148;DHT22;8689;47.364;8.796;2023-06-10T16:33:17;28.40;45.40
17148;DHT22;8689;47.364;8.796;2023-06-10T16:35:48;27.90;47.00
17148;DHT22;8689;47.364;8.796;2023-06-10T16:39:00;27.80;46.90
17148;DHT22;8689;47.364;8.796;2023-06-10T16:51:42;26.90;47.70
17148;DHT22;8689;47.364;8.796;2023-06-10T16:54:33;26.70;49.00
17148;DHT22;8689;47.364;8.796;2023-06-10T16:57:01;26.50;49.20
17148;DHT22;8689;47.364;8.796;2023-06-10T16:59:28;26.30;49.30
17148;DHT22;8689;47.364;8.796;2023-06-10T17:01:59;26.10;49.80
17148;DHT22;8689;47.364;8.796;2023-06-10T17:04:41;25.80;50.50
17148;DHT22;8689;47.364;8.796;2023-06-10T17:07:19;25.40;51.60
17148;DHT22;8689;47.364;8.796;2023-06-10T17:09:57;25.20;52.30
17148;DHT22;8689;47.364;8.796;2023-06-10T17:12:31;25.10;52.90
17148;DHT22;8689;47.364;8.796;2023-06-10T17:14:59;25.10;52.30
17148;DHT22;8689;47.364;8.796;2023-06-10T17:17:28;25.20;51.90
17148;DHT22;8689;47.364;8.796;2023-06-10T17:19:56;25.40;51.70
17148;DHT22;8689;47.364;8.796;2023-06-10T17:22:24;25.50;51.70
17148;DHT22;8689;47.364;8.796;2023-06-10T17:24:52;25.50;51.80
17148;DHT22;8689;47.364;8.796;2023-06-10T17:27:20;25.50;50.90
17148;DHT22;8689;47.364;8.796;2023-06-10T17:29:48;25.40;51.10
17148;DHT22;8689;47.364;8.796;2023-06-10T17:32:15;25.30;51.60
17148;DHT22;8689;47.364;8.796;2023-06-10T17:34:42;25.20;51.90
17148;DHT22;8689;47.364;8.796;2023-06-10T17:37:10;25.10;52.00
17148;DHT22;8689;47.364;8.796;2023-06-10T17:39:39;25.10;52.70
17148;DHT22;8689;47.364;8.796;2023-06-10T17:42:08;25.00;52.00
17148;DHT22;8689;47.364;8.796;2023-06-10T17:44:37;24.90;52.20
17148;DHT22;8689;47.364;8.796;2023-06-10T17:47:05;24.80;53.10
17148;DHT22;8689;47.364;8.796;2023-06-10T17:49:50;24.70;53.20
17148;DHT22;8689;47.364;8.796;2023-06-10T18:02:33;25.70;52.60
17148;DHT22;8689;47.364;8.796;2023-06-10T18:05:08;25.40;53.10
17148;DHT22;8689;47.364;8.796;2023-06-10T18:07:49;25.40;54.20
17148;DHT22;8689;47.364;8.796;2023-06-10T18:11:02;25.40;53.50
17148;DHT22;8689;47.364;8.796;2023-06-10T18:24:18;24.00;55.50
17148;DHT22;8689;47.364;8.796;2023-06-10T18:26:46;24.00;56.70
17148;DHT22;8689;47.364;8.796;2023-06-10T18:29:13;23.90;56.90
17148;DHT22;8689;47.364;8.796;2023-06-10T18:31:43;23.90;58.30
17148;DHT22;8689;47.364;8.796;2023-06-10T18:34:10;23.90;57.30
17148;DHT22;8689;47.364;8.796;2023-06-10T18:36:38;23.90;56.50
17148;DHT22;8689;47.364;8.796;2023-06-10T18:39:06;23.80;57.30
17148;DHT22;8689;47.364;8.796;2023-06-10T18:41:35;23.70;57.20
17148;DHT22;8689;47.364;8.796;2023-06-10T18:44:02;23.60;56.30
17148;DHT22;8689;47.364;8.796;2023-06-10T18:46:43;23.40;57.30
17148;DHT22;8689;47.364;8.796;2023-06-10T18:49:10;23.20;57.90
17148;DHT22;8689;47.364;8.796;2023-06-10T18:51:38;23.00;58.80
17148;DHT22;8689;47.364;8.796;2023-06-10T18:54:06;22.80;59.00
17148;DHT22;8689;47.364;8.796;2023-06-10T18:56:36;22.50;59.80
17148;DHT22;8689;47.364;8.796;2023-06-10T18:59:04;22.30;61.00
17148;DHT22;8689;47.364;8.796;2023-06-10T19:01:31;22.10;62.00
17148;DHT22;8689;47.364;8.796;2023-06-10T19:04:09;21.90;63.30
17148;DHT22;8689;47.364;8.796;2023-06-10T19:06:37;21.60;65.00
17148;DHT22;8689;47.364;8.796;2023-06-10T19:09:05;21.40;65.70
17148;DHT22;8689;47.364;8.796;2023-06-10T19:11:33;21.30;66.70
17148;DHT22;8689;47.364;8.796;2023-06-10T19:14:02;21.10;67.60
17148;DHT22;8689;47.364;8.796;2023-06-10T19:16:32;20.90;68.00
17148;DHT22;8689;47.364;8.796;2023-06-10T19:19:00;20.70;69.80
17148;DHT22;8689;47.364;8.796;2023-06-10T19:21:27;20.50;69.60
17148;DHT22;8689;47.364;8.796;2023-06-10T19:23:55;20.40;70.40
17148;DHT22;8689;47.364;8.796;2023-06-10T19:26:23;20.20;70.60
17148;DHT22;8689;47.364;8.796;2023-06-10T19:28:50;20.10;71.50
17148;DHT22;8689;47.364;8.796;2023-06-10T19:31:21;20.00;72.40
17148;DHT22;8689;47.364;8.796;2023-06-10T19:33:48;19.80;73.40
17148;DHT22;8689;47.364;8.796;2023-06-10T19:36:15;19.70;73.70
17148;DHT22;8689;47.364;8.796;2023-06-10T19:38:44;19.50;73.90
17148;DHT22;8689;47.364;8.796;2023-06-10T19:41:11;19.40;73.80
17148;DHT22;8689;47.364;8.796;2023-06-10T19:43:39;19.30;74.70
17148;DHT22;8689;47.364;8.796;2023-06-10T19:46:07;19.10;75.00
17148;DHT22;8689;47.364;8.796;2023-06-10T19:48:36;19.00;75.40
17148;DHT22;8689;47.364;8.796;2023-06-10T19:51:03;19.00;75.80
17148;DHT22;8689;47.364;8.796;2023-06-10T19:53:31;18.90;76.00
17148;DHT22;8689;47.364;8.796;2023-06-10T19:55:59;18.80;76.20
17148;DHT22;8689;47.364;8.796;2023-06-10T19:58:27;18.80;76.60
17148;DHT22;8689;47.364;8.796;2023-06-10T20:00:54;18.70;76.60
17148;DHT22;8689;47.364;8.796;2023-06-10T20:03:22;18.70;76.80
17148;DHT22;8689;47.364;8.796;2023-06-10T20:05:51;18.60;76.60
17148;DHT22;8689;47.364;8.796;2023-06-10T20:08:18;18.60;77.20
17148;DHT22;8689;47.364;8.796;2023-06-10T20:10:47;18.50;77.30
17148;DHT22;8689;47.364;8.796;2023-06-10T20:13:14;18.50;77.50
17148;DHT22;8689;47.364;8.796;2023-06-10T20:15:44;18.50;77.70
17148;DHT22;8689;47.364;8.796;2023-06-10T20:18:12;18.50;77.60
17148;DHT22;8689;47.364;8.796;2023-06-10T20:20:40;18.50;78.20
17148;DHT22;8689;47.364;8.796;2023-06-10T20:23:10;18.50;78.20
17148;DHT22;8689;47.364;8.796;2023-06-10T20:25:38;18.40;78.70
17148;DHT22;8689;47.364;8.796;2023-06-10T20:28:11;18.40;78.80
17148;DHT22;8689;47.364;8.796;2023-06-10T20:30:39;18.30;78.90
17148;DHT22;8689;47.364;8.796;2023-06-10T20:33:06;18.30;79.50
17148;DHT22;8689;47.364;8.796;2023-06-10T20:35:33;18.20;79.30
17148;DHT22;8689;47.364;8.796;2023-06-10T20:38:03;18.20;79.70
17148;DHT22;8689;47.364;8.796;2023-06-10T20:40:32;18.20;80.00
17148;DHT22;8689;47.364;8.796;2023-06-10T20:43:00;18.20;80.60
17148;DHT22;8689;47.364;8.796;2023-06-10T20:45:29;18.20;80.50
17148;DHT22;8689;47.364;8.796;2023-06-10T20:47:57;18.20;80.60
17148;DHT22;8689;47.364;8.796;2023-06-10T20:50:25;18.10;80.70
17148;DHT22;8689;47.364;8.796;2023-06-10T20:53:03;18.10;80.70
17148;DHT22;8689;47.364;8.796;2023-06-10T20:55:33;18.00;80.80
17148;DHT22;8689;47.364;8.796;2023-06-10T20:58:01;18.00;81.30
17148;DHT22;8689;47.364;8.796;2023-06-10T21:00:28;17.90;81.70
17148;DHT22;8689;47.364;8.796;2023-06-10T21:02:57;17.90;81.80
17148;DHT22;8689;47.364;8.796;2023-06-10T21:05:25;17.90;81.80
17148;DHT22;8689;47.364;8.796;2023-06-10T21:07:53;18.00;81.60
17148;DHT22;8689;47.364;8.796;2023-06-10T21:10:20;18.00;82.10
17148;DHT22;8689;47.364;8.796;2023-06-10T21:12:50;17.90;82.00
17148;DHT22;8689;47.364;8.796;2023-06-10T21:15:22;17.90;82.40
17148;DHT22;8689;47.364;8.796;2023-06-10T21:17:50;17.90;82.80
17148;DHT22;8689;47.364;8.796;2023-06-10T21:20:20;17.80;83.00
17148;DHT22;8689;47.364;8.796;2023-06-10T21:22:48;17.70;83.10
17148;DHT22;8689;47.364;8.796;2023-06-10T21:25:15;17.70;83.40
17148;DHT22;8689;47.364;8.796;2023-06-10T21:27:43;17.70;83.90
17148;DHT22;8689;47.364;8.796;2023-06-10T21:30:16;17.70;83.90
17148;DHT22;8689;47.364;8.796;2023-06-10T21:32:47;17.70;84.00
17148;DHT22;8689;47.364;8.796;2023-06-10T21:35:15;17.60;84.30
17148;DHT22;8689;47.364;8.796;2023-06-10T21:37:43;17.60;84.60
17148;DHT22;8689;47.364;8.796;2023-06-10T21:40:11;17.60;84.80
17148;DHT22;8689;47.364;8.796;2023-06-10T21:42:39;17.60;84.80
17148;DHT22;8689;47.364;8.796;2023-06-10T21:45:08;17.60;85.00
17148;DHT22;8689;47.364;8.796;2023-06-10T21:47:38;17.60;85.30
17148;DHT22;8689;47.364;8.796;2023-06-10T21:50:06;17.60;85.30
17148;DHT22;8689;47.364;8.796;2023-06-10T21:52:40;17.60;85.60
17148;DHT22;8689;47.364;8.796;2023-06-10T21:55:13;17.50;85.50
17148;DHT22;8689;47.364;8.796;2023-06-10T21:57:41;17.50;85.70
17148;DHT22;8689;47.364;8.796;2023-06-10T22:00:11;17.60;85.80
17148;DHT22;8689;47.364;8.796;2023-06-10T22:02:42;17.60;85.90
17148;DHT22;8689;47.364;8.796;2023-06-10T22:05:11;17.70;85.10
17148;DHT22;8689;47.364;8.796;2023-06-10T22:07:38;17.80;84.00
17148;DHT22;8689;47.364;8.796;2023-06-10T22:10:06;18.00;83.70
17148;DHT22;8689;47.364;8.796;2023-06-10T22:12:34;18.10;83.30
17148;DHT22;8689;47.364;8.796;2023-06-10T22:15:02;18.20;83.00
17148;DHT22;8689;47.364;8.796;2023-06-10T22:17:31;18.20;82.80
17148;DHT22;8689;47.364;8.796;2023-06-10T22:20:00;18.20;82.80
17148;DHT22;8689;47.364;8.796;2023-06-10T22:22:28;18.20;83.50
17148;DHT22;8689;47.364;8.796;2023-06-10T22:24:56;18.30;82.40
17148;DHT22;8689;47.364;8.796;2023-06-10T22:27:25;18.30;82.80
17148;DHT22;8689;47.364;8.796;2023-06-10T22:29:54;18.20;82.70
17148;DHT22;8689;47.364;8.796;2023-06-10T22:32:23;18.10;83.60
17148;DHT22;8689;47.364;8.796;2023-06-10T22:34:52;18.00;84.30
17148;DHT22;8689;47.364;8.796;2023-06-10T22:37:22;17.90;84.20
17148;DHT22;8689;47.364;8.796;2023-06-10T22:39:50;17.90;84.70
17148;DHT22;8689;47.364;8.796;2023-06-10T22:42:17;17.90;85.10
17148;DHT22;8689;47.364;8.796;2023-06-10T22:44:44;17.90;84.20
17148;DHT22;8689;47.364;8.796;2023-06-10T22:47:12;17.90;85.10
17148;DHT22;8689;47.364;8.796;2023-06-10T22:49:40;17.80;85.40
17148;DHT22;8689;47.364;8.796;2023-06-10T22:52:10;17.70;86.30
17148;DHT22;8689;47.364;8.796;2023-06-10T22:54:41;17.60;86.70
17148;DHT22;8689;47.364;8.796;2023-06-10T22:57:09;17.50;87.30
17148;DHT22;8689;47.364;8.796;2023-06-10T22:59:39;17.40;88.00
17148;DHT22;8689;47.364;8.796;2023-06-10T23:02:14;17.30;89.20
17148;DHT22;8689;47.364;8.796;2023-06-10T23:04:42;17.10;90.20
17148;DHT22;8689;47.364;8.796;2023-06-10T23:07:11;17.00;90.70
17148;DHT22;8689;47.364;8.796;2023-06-10T23:09:43;16.90;91.20
17148;DHT22;8689;47.364;8.796;2023-06-10T23:12:11;16.80;92.30
17148;DHT22;8689;47.364;8.796;2023-06-10T23:14:39;16.80;92.80
17148;DHT22;8689;47.364;8.796;2023-06-10T23:17:07;16.80;93.50
17148;DHT22;8689;47.364;8.796;2023-06-10T23:19:35;16.70;93.90
17148;DHT22;8689;47.364;8.796;2023-06-10T23:22:09;16.70;94.90
17148;DHT22;8689;47.364;8.796;2023-06-10T23:24:39;16.60;96.00
17148;DHT22;8689;47.364;8.796;2023-06-10T23:27:10;16.50;97.20
17148;DHT22;8689;47.364;8.796;2023-06-10T23:29:40;16.40;98.10
17148;DHT22;8689;47.364;8.796;2023-06-10T23:32:09;16.30;99.90
17148;DHT22;8689;47.364;8.796;2023-06-10T23:34:37;16.30;99.90
17148;DHT22;8689;47.364;8.796;2023-06-10T23:37:05;16.20;99.90